Time;durP1;ratioP1;P1;durP2;ratioP2;P2;SDS_P1;SDS_P2;PMS_P1;PMS_P2;Temp;Humidity;BMP_temperature;BMP_pressure;BME280_temperature;BME280_humidity;BME280_pressure;Samples;Min_cycle;Max_cycle;Signal;HPM_P1;HPM_P2
2022/06/12 00:00:28;;;;;;;26.85;16.30;;;;;;;19.54;54.06;99342.09;1635946;87;21107;-75
2022/06/12 00:02:56;;;;;;;29.32;17.23;;;;;;;19.54;54.17;99342.09;1636123;87;21498;-75
2022/06/12 00:05:24;;;;;;;29.10;16.02;;;;;;;19.56;54.44;99353.48;1635929;87;21185;-75
2022/06/12 00:07:52;;;;;;;29.37;16.65;;;;;;;19.56;54.95;99350.82;1635907;87;21862;-75
2022/06/12 00:10:20;;;;;;;29.42;16.82;;;;;;;19.55;54.96;99350.47;1635802;87;21676;-76
2022/06/12 00:12:47;;;;;;;30.88;17.92;;;;;;;19.55;55.83;99349.59;1636145;86;21102;-75
2022/06/12 00:15:18;;;;;;;33.80;19.57;;;;;;;19.53;56.40;99350.20;1636183;86;21169;-75
2022/06/12 00:17:45;;;;;;;30.72;18.65;;;;;;;19.49;57.65;99349.58;1636297;87;21106;-75
2022/06/12 00:20:14;;;;;;;26.87;18.32;;;;;;;19.46;58.22;99347.14;1636194;87;21163;-75
2022/06/12 00:22:41;;;;;;;32.28;17.75;;;;;;;19.45;58.47;99351.63;1635958;86;21174;-75
2022/06/12 00:25:14;;;;;;;28.83;17.52;;;;;;;19.44;59.11;99352.58;1635959;86;21098;-75
2022/06/12 00:27:37;;;;;;;23.92;16.02;;;;;;;19.42;58.73;99344.34;1635781;86;21561;-76
2022/06/12 00:30:06;;;;;;;25.10;16.57;;;;;;;19.44;59.66;99349.92;1636041;87;21015;-75
2022/06/12 00:32:33;;;;;;;22.55;14.98;;;;;;;19.44;59.71;99351.74;1635969;87;21622;-75
2022/06/12 00:34:59;;;;;;;23.52;15.03;;;;;;;19.45;60.15;99350.76;1636137;87;21699;-75
2022/06/12 00:37:26;;;;;;;24.77;14.75;;;;;;;19.44;61.07;99348.58;1650124;86;21088;-75
2022/06/12 00:39:54;;;;;;;21.60;13.45;;;;;;;19.43;60.20;99351.36;1667107;86;21107;-75
2022/06/12 00:42:30;;;;;;;20.77;11.93;;;;;;;19.45;61.07;99348.09;1642664;86;21097;-76
2022/06/12 00:44:58;;;;;;;16.80;11.53;;;;;;;19.47;61.68;99347.03;1641564;87;21876;-75
2022/06/12 00:47:25;;;;;;;15.50;11.57;;;;;;;19.47;62.07;99347.03;1641532;87;21090;-76
2022/06/12 00:50:05;;;;;;;15.55;11.65;;;;;;;19.49;62.11;99344.25;1641543;87;21086;-76
2022/06/12 00:52:47;;;;;;;17.82;11.83;;;;;;;19.49;62.38;99345.09;1641473;87;21042;-75
2022/06/12 00:55:41;;;;;;;20.40;12.20;;;;;;;19.51;62.61;99343.64;1641788;87;21672;-75
2022/06/12 00:58:15;;;;;;;15.38;10.85;;;;;;;19.51;63.17;99346.31;1642489;87;21163;-75
2022/06/12 01:00:43;;;;;;;15.60;11.00;;;;;;;19.51;63.06;99346.31;1644728;87;21003;-75
2022/06/12 01:03:10;;;;;;;14.63;10.85;;;;;;;19.52;62.57;99349.36;1644417;87;21105;-75
2022/06/12 01:08:22;;;;;;;20.20;11.88;;;;;;;19.54;62.52;99346.09;1644625;87;21098;-75
2022/06/12 01:10:52;;;;;;;18.52;10.65;;;;;;;19.56;63.56;99346.81;1644602;87;21075;-75
2022/06/12 01:13:23;;;;;;;14.38;10.15;;;;;;;19.55;63.27;99339.80;1644032;87;21667;-75
2022/06/12 01:15:55;;;;;;;15.00;10.63;;;;;;;19.56;63.04;99338.81;1644485;87;21161;-76
2022/06/12 01:18:27;;;;;;;16.12;10.50;;;;;;;19.58;63.63;99343.55;1644452;87;21034;-75
2022/06/12 01:21:04;;;;;;;13.22;9.68;;;;;;;19.58;63.84;99335.53;1644705;87;22098;-75
2022/06/12 01:24:01;;;;;;;19.70;11.43;;;;;;;19.58;63.08;99330.20;1644281;87;21072;-75
2022/06/12 01:26:42;;;;;;;17.55;10.80;;;;;;;19.60;63.59;99332.75;1644596;87;21108;-75
2022/06/12 01:29:23;;;;;;;23.20;10.43;;;;;;;19.59;64.05;99331.91;1619073;87;21078;-75
2022/06/12 01:32:01;;;;;;;13.60;10.65;;;;;;;19.60;63.76;99333.62;1644311;87;21079;-75
2022/06/12 01:34:54;;;;;;;12.47;10.00;;;;;;;19.60;64.19;99328.75;1644042;87;21117;-75
2022/06/12 01:37:38;;;;;;;13.28;10.10;;;;;;;19.61;64.00;99330.47;1644603;87;21138;-76
2022/06/12 01:40:34;;;;;;;14.18;10.00;;;;;;;19.60;63.96;99325.63;1643924;87;21137;-75
2022/06/12 01:43:35;;;;;;;19.20;10.00;;;;;;;19.63;64.17;99332.04;1644463;87;21706;-75
2022/06/12 01:46:21;;;;;;;16.17;10.28;;;;;;;19.65;64.66;99332.80;1644208;87;21038;-76
2022/06/12 01:49:00;;;;;;;14.87;10.45;;;;;;;19.64;64.90;99321.74;1644236;87;21593;-75
2022/06/12 01:51:44;;;;;;;15.48;10.85;;;;;;;19.62;65.59;99321.02;1644301;87;21227;-75
2022/06/12 01:54:27;;;;;;;14.95;9.70;;;;;;;19.59;65.77;99323.91;1644644;87;21037;-76
2022/06/12 01:57:09;;;;;;;16.27;10.45;;;;;;;19.58;66.36;99322.19;1637610;87;22120;-75
2022/06/12 01:59:56;;;;;;;15.23;9.28;;;;;;;19.58;66.80;99317.35;1652572;86;22406;-75
2022/06/12 02:03:04;;;;;;;11.93;9.48;;;;;;;19.53;67.09;99325.69;1653529;86;21081;-75
2022/06/12 02:05:58;;;;;;;11.33;9.58;;;;;;;19.51;66.88;99320.95;1653674;86;21179;-74
2022/06/12 02:08:38;;;;;;;19.30;9.83;;;;;;;19.53;66.94;99323.52;1653906;86;21095;-73
2022/06/12 02:13:58;;;;;;;12.55;9.40;;;;;;;19.56;67.48;99325.96;1653726;86;21054;-75
2022/06/12 02:16:33;;;;;;;13.13;9.53;;;;;;;19.58;67.47;99324.02;1651339;86;21125;-74
2022/06/12 02:19:07;;;;;;;12.80;9.00;;;;;;;19.59;67.54;99326.58;1653954;86;21139;-75
2022/06/12 02:21:48;;;;;;;16.60;10.93;;;;;;;19.61;67.68;99321.13;1653837;86;21160;-75
2022/06/12 02:24:34;;;;;;;13.43;9.78;;;;;;;19.63;67.51;99328.03;1649499;86;20990;-75
2022/06/12 02:27:16;;;;;;;13.58;9.15;;;;;;;19.64;67.44;99325.75;1651520;86;21608;-75
2022/06/12 02:29:51;;;;;;;12.43;9.00;;;;;;;19.67;67.59;99325.52;1652925;86;21086;-76
2022/06/12 02:32:31;;;;;;;12.18;9.53;;;;;;;19.69;68.15;99321.41;1654074;86;21130;-75
2022/06/12 02:35:05;;;;;;;12.60;9.33;;;;;;;19.71;68.56;99323.95;1653387;86;21567;-75
2022/06/12 02:37:51;;;;;;;15.48;10.43;;;;;;;19.72;68.99;99330.98;1653893;86;21061;-76
2022/06/12 02:40:29;;;;;;;12.45;9.93;;;;;;;19.74;69.55;99330.41;1667384;85;21144;-75
2022/06/12 02:42:57;;;;;;;17.98;10.03;;;;;;;19.74;69.86;99326.41;1681600;85;21069;-75
2022/06/12 02:45:37;;;;;;;17.80;10.53;;;;;;;19.76;69.89;99320.00;1667379;85;21688;-75
2022/06/12 02:48:05;;;;;;;11.57;9.43;;;;;;;19.80;69.82;99323.28;1654080;86;21596;-75
2022/06/12 02:50:40;;;;;;;12.13;9.33;;;;;;;19.82;69.91;99322.67;1653490;86;21616;-75
2022/06/12 02:53:41;;;;;;;13.62;9.23;;;;;;;19.85;70.04;99319.77;1652150;86;21135;-75
2022/06/12 02:56:16;;;;;;;12.65;9.23;;;;;;;19.88;69.64;99326.22;1653521;86;21178;-75
2022/06/12 02:59:20;;;;;;;17.73;9.68;;;;;;;19.92;70.09;99322.36;1650978;86;21176;-75
2022/06/12 03:01:52;;;;;;;13.13;9.05;;;;;;;19.95;69.55;99322.10;1646287;87;21132;-75
2022/06/12 03:04:33;;;;;;;11.15;10.05;;;;;;;20.01;69.28;99321.64;1645259;87;21179;-76
2022/06/12 03:07:00;;;;;;;17.57;10.80;;;;;;;20.06;69.89;99317.78;1645704;87;21678;-75
2022/06/12 03:09:27;;;;;;;14.45;9.68;;;;;;;20.09;70.34;99317.52;1646315;87;21109;-75
2022/06/12 03:11:55;;;;;;;13.55;10.28;;;;;;;20.10;70.91;99320.07;1646411;87;21528;-75
2022/06/12 03:14:22;;;;;;;12.30;8.93;;;;;;;20.11;71.47;99318.27;1646092;87;21101;-75
2022/06/12 03:16:49;;;;;;;15.20;9.00;;;;;;;20.14;71.43;99324.22;1646226;87;21117;-75
2022/06/12 03:19:42;;;;;;;14.47;9.88;;;;;;;20.18;71.19;99320.83;1646576;87;21145;-76
2022/06/12 03:22:43;;;;;;;14.47;9.83;;;;;;;20.22;71.16;99321.81;1645955;85;21034;-75
2022/06/12 03:25:40;;;;;;;14.50;9.40;;;;;;;20.28;71.25;99321.81;1646116;87;21905;-75
2022/06/12 03:28:28;;;;;;;10.90;9.15;;;;;;;20.34;71.08;99322.67;1601627;89;21769;-75
2022/06/12 03:31:20;;;;;;;12.00;9.80;;;;;;;20.38;71.36;99312.09;1642319;87;21225;-76
2022/06/12 03:33:58;;;;;;;11.38;9.58;;;;;;;20.46;70.63;99315.98;1646136;87;21620;-76
2022/06/12 03:36:39;;;;;;;12.18;8.73;;;;;;;20.53;71.37;99318.55;1646521;87;21133;-75
2022/06/12 03:39:20;;;;;;;18.07;9.23;;;;;;;20.56;71.55;99315.14;1646180;87;22246;-76
2022/06/12 03:42:22;;;;;;;15.58;9.48;;;;;;;20.62;71.86;99313.80;1646450;87;21038;-76
2022/06/12 03:45:06;;;;;;;10.13;9.08;;;;;;;20.65;72.29;99312.25;1613229;87;21066;-76
2022/06/12 03:48:02;;;;;;;12.37;8.60;;;;;;;20.70;72.31;99315.41;1646284;87;21153;-76
2022/06/12 03:50:46;;;;;;;14.98;9.33;;;;;;;20.76;72.21;99305.57;1645761;87;21042;-76
2022/06/12 03:53:24;;;;;;;12.88;9.33;;;;;;;20.84;72.62;99314.29;1645931;87;21196;-75
2022/06/12 03:59:32;;;;;;;12.63;8.60;;;;;;;20.95;72.24;99310.77;1648037;86;21078;-76
2022/06/12 04:01:59;;;;;;;9.43;8.48;;;;;;;21.03;71.52;99311.00;1653646;86;21089;-76
2022/06/12 04:04:29;;;;;;;13.72;9.25;;;;;;;21.12;71.81;99313.41;1653725;86;21814;-76
2022/06/12 04:06:56;;;;;;;9.55;8.60;;;;;;;21.19;71.74;99313.25;1651200;86;21570;-76
2022/06/12 04:09:25;;;;;;;12.07;8.43;;;;;;;21.26;71.58;99312.27;1653822;86;21030;-75
2022/06/12 04:12:02;;;;;;;13.78;8.70;;;;;;;21.33;71.54;99314.78;1653551;86;21140;-76
2022/06/12 04:14:37;;;;;;;12.47;8.38;;;;;;;21.38;71.60;99316.59;1653856;86;21022;-76
2022/06/12 04:17:04;;;;;;;14.47;8.30;;;;;;;21.45;71.29;99321.82;1653399;86;21145;-76
2022/06/12 04:19:58;;;;;;;14.90;8.90;;;;;;;21.51;71.46;99315.97;1653717;86;21854;-76
2022/06/12 04:22:08;;;;;;;13.32;8.43;;;;;;;21.60;71.22;99320.19;1653126;86;21071;-76
2022/06/12 04:24:43;;;;;;;12.40;8.38;;;;;;;21.67;71.23;99326.27;1653862;86;21059;-76
2022/06/12 04:27:19;;;;;;;;;;;;;;;21.75;71.01;99326.94;1656078;86;21691;-76
2022/06/12 04:30:02;;;;;;;9.68;8.20;;;;;;;21.84;70.24;99328.85;1653599;86;20205;-76
2022/06/12 04:32:29;;;;;;;15.35;8.78;;;;;;;21.89;69.91;99336.00;1658921;85;21635;-76
2022/06/12 04:34:55;;;;;;;12.95;8.18;;;;;;;21.95;69.70;99335.97;1625445;85;21086;-76
2022/06/12 04:37:27;;;;;;;8.90;8.03;;;;;;;22.01;69.49;99333.27;1655138;85;21092;-76
2022/06/12 04:39:54;;;;;;;12.58;8.28;;;;;;;22.05;68.97;99329.34;1651675;86;21073;-76
2022/06/12 04:42:23;;;;;;;12.20;9.13;;;;;;;22.13;68.75;99331.37;1652655;86;22153;-76
2022/06/12 04:44:50;;;;;;;11.78;9.75;;;;;;;22.19;68.65;99330.83;1652031;86;21108;-77
2022/06/12 04:47:21;;;;;;;17.27;10.08;;;;;;;22.26;68.84;99329.34;1652248;86;21102;-76
2022/06/12 04:49:49;;;;;;;16.10;9.08;;;;;;;22.29;68.68;99325.06;1652157;86;21693;-76
2022/06/12 04:52:16;;;;;;;18.30;10.18;;;;;;;22.35;68.53;99326.38;1652249;86;22069;-76
2022/06/12 04:54:44;;;;;;;14.70;10.58;;;;;;;22.40;68.02;99326.83;1651979;86;21697;-76
2022/06/12 04:57:10;;;;;;;15.58;9.40;;;;;;;22.39;68.06;99327.80;1652237;86;21476;-76
2022/06/12 04:59:37;;;;;;;15.55;9.58;;;;;;;22.44;67.84;99329.58;1651152;86;21615;-77
2022/06/12 05:02:04;;;;;;;12.70;8.73;;;;;;;22.50;67.91;99329.06;1649717;87;21186;-76
2022/06/12 05:04:32;;;;;;;11.80;8.40;;;;;;;22.52;66.30;99330.27;1649804;87;21465;-76
2022/06/12 05:06:59;;;;;;;12.28;9.05;;;;;;;22.51;66.37;99331.23;1649578;87;21154;-76
2022/06/12 05:09:29;;;;;;;15.15;8.43;;;;;;;22.53;66.36;99331.48;1649948;86;21134;-77
2022/06/12 05:11:56;;;;;;;10.55;8.23;;;;;;;22.56;66.29;99332.55;1649481;87;21107;-76
2022/06/12 05:14:22;;;;;;;10.93;8.15;;;;;;;22.61;66.25;99330.31;1649907;87;21480;-77
2022/06/12 05:17:02;;;;;;;12.45;7.83;;;;;;;22.66;66.42;99329.89;1649581;87;21162;-76
2022/06/12 05:19:35;;;;;;;14.73;9.05;;;;;;;22.72;66.21;99332.55;1649916;86;21111;-77
2022/06/12 05:22:03;;;;;;;15.85;8.55;;;;;;;22.79;66.47;99339.05;1649953;86;21738;-77
2022/06/12 05:24:31;;;;;;;13.30;8.73;;;;;;;22.85;66.54;99341.20;1649877;87;21107;-76
2022/06/12 05:26:58;;;;;;;16.57;9.48;;;;;;;22.90;66.01;99341.64;1649547;87;21344;-76
2022/06/12 05:29:32;;;;;;;9.08;7.78;;;;;;;22.96;65.98;99334.87;1649605;87;21090;-76
2022/06/12 05:31:59;;;;;;;13.43;7.92;;;;;;;23.04;65.65;99326.15;1650115;86;21060;-76
2022/06/12 05:34:26;;;;;;;14.40;8.78;;;;;;;23.09;65.58;99337.34;1649557;87;21127;-76
2022/06/12 05:36:53;;;;;;;12.18;7.45;;;;;;;23.14;65.25;99343.98;1649795;86;21665;-75
2022/06/12 05:39:20;;;;;;;9.95;8.00;;;;;;;23.21;65.56;99342.10;1649764;87;21095;-76
2022/06/12 05:41:46;;;;;;;12.30;7.83;;;;;;;23.28;65.39;99338.70;1649646;87;21080;-77
2022/06/12 05:44:14;;;;;;;8.78;7.62;;;;;;;23.32;64.68;99334.77;1649520;87;21118;-77
2022/06/12 05:46:40;;;;;;;7.85;7.08;;;;;;;23.35;64.48;99334.50;1649893;87;21125;-77
2022/06/12 05:49:07;;;;;;;12.50;7.22;;;;;;;23.44;64.91;99336.00;1649988;86;21099;-76
2022/06/12 05:51:34;;;;;;;18.40;7.40;;;;;;;23.54;65.12;99336.84;1649845;87;21146;-76
2022/06/12 05:54:00;;;;;;;11.18;7.03;;;;;;;23.66;64.87;99342.92;1649448;87;21615;-77
2022/06/12 05:56:28;;;;;;;10.63;7.10;;;;;;;23.79;64.23;99343.97;1649869;87;21098;-77
2022/06/12 05:58:55;;;;;;;10.68;7.45;;;;;;;23.84;63.49;99346.63;1649248;87;21650;-76
2022/06/12 06:01:23;;;;;;;14.98;7.03;;;;;;;23.90;62.78;99345.20;1645213;87;21633;-76
2022/06/12 06:03:50;;;;;;;10.40;6.15;;;;;;;23.95;62.39;99346.13;1644794;87;21115;-77
2022/06/12 06:06:30;;;;;;;9.28;6.45;;;;;;;24.00;62.14;99349.23;1645037;87;21110;-76
2022/06/12 06:08:57;;;;;;;10.08;6.80;;;;;;;24.05;61.78;99351.83;1644804;87;21151;-77
2022/06/12 06:11:25;;;;;;;7.95;6.70;;;;;;;24.09;62.00;99349.22;1645453;87;21853;-77
2022/06/12 06:13:51;;;;;;;8.73;6.08;;;;;;;24.16;62.07;99352.18;1645040;87;21138;-76
2022/06/12 06:16:18;;;;;;;10.20;6.45;;;;;;;24.23;61.59;99351.11;1644992;87;21104;-76
2022/06/12 06:18:45;;;;;;;11.30;6.45;;;;;;;24.30;61.17;99350.36;1645073;87;21138;-77
2022/06/12 06:21:14;;;;;;;6.53;5.65;;;;;;;24.33;60.54;99343.86;1645161;87;21035;-76
2022/06/12 06:23:42;;;;;;;12.65;6.00;;;;;;;24.36;60.31;99350.30;1617340;87;22350;-77
2022/06/12 06:26:09;;;;;;;7.85;5.55;;;;;;;24.39;59.92;99351.33;1645001;87;21756;-76
2022/06/12 06:28:37;;;;;;;9.48;5.22;;;;;;;24.42;59.84;99350.20;1644728;87;21079;-78
2022/06/12 06:31:06;;;;;;;6.83;6.12;;;;;;;24.42;59.60;99350.20;1645740;85;21028;-77
2022/06/12 06:33:32;;;;;;;9.98;5.78;;;;;;;24.46;59.20;99343.05;1670908;85;21127;-77
2022/06/12 06:35:59;;;;;;;10.03;5.25;;;;;;;24.51;59.18;99349.81;1673718;85;21106;-77
2022/06/12 06:38:25;;;;;;;9.80;5.40;;;;;;;24.58;58.62;99345.56;1673817;85;21150;-77
2022/06/12 06:40:52;;;;;;;5.90;5.10;;;;;;;24.61;58.02;99340.77;1673627;85;21075;-77
2022/06/12 06:43:18;;;;;;;7.65;5.15;;;;;;;24.70;58.58;99334.15;1673664;85;21052;-76
2022/06/12 06:48:31;;;;;;;6.58;5.12;;;;;;;24.94;58.33;99334.95;1673702;85;21874;-77
2022/06/12 06:50:58;;;;;;;6.47;5.28;;;;;;;25.07;57.82;99331.40;1673446;85;21028;-77
2022/06/12 06:53:24;;;;;;;8.88;5.75;;;;;;;25.16;57.11;99335.86;1673887;85;21028;-77
2022/06/12 06:55:51;;;;;;;5.85;5.35;;;;;;;25.21;55.93;99338.95;1673953;85;21124;-77
2022/06/12 06:58:21;;;;;;;9.10;5.03;;;;;;;25.22;55.44;99333.92;1673905;85;21149;-77
2022/06/12 07:00:50;;;;;;;13.30;5.62;;;;;;;25.24;56.08;99329.73;1673872;84;21106;-77
2022/06/12 07:03:17;;;;;;;8.03;5.12;;;;;;;25.31;55.33;99334.05;1673681;85;21661;-76
2022/06/12 07:05:44;;;;;;;7.12;4.92;;;;;;;25.36;55.60;99334.43;1673624;85;21542;-77
2022/06/12 07:08:11;;;;;;;12.28;5.12;;;;;;;25.45;55.11;99337.53;1673836;85;21652;-77
2022/06/12 07:10:39;;;;;;;5.62;4.97;;;;;;;25.54;55.16;99330.41;1673573;85;21705;-77
2022/06/12 07:13:06;;;;;;;8.53;5.55;;;;;;;25.64;55.44;99330.30;1673898;85;22105;-77
2022/06/12 07:15:33;;;;;;;6.25;4.97;;;;;;;25.73;55.10;99329.39;1673609;85;21610;-77
2022/06/12 07:18:03;;;;;;;6.12;4.80;;;;;;;25.81;54.93;99328.11;1673799;84;21641;-77
2022/06/12 07:20:35;;;;;;;6.20;5.33;;;;;;;25.89;54.67;99328.19;1673660;85;21012;-77
2022/06/12 07:23:03;;;;;;;12.35;5.42;;;;;;;25.99;54.18;99324.09;1673682;85;21617;-77
2022/06/12 07:25:32;;;;;;;6.75;5.03;;;;;;;26.08;53.56;99333.08;1673803;85;21123;-77
2022/06/12 07:27:59;;;;;;;9.40;5.25;;;;;;;26.14;53.48;99329.73;1673723;85;22059;-76
2022/06/12 07:30:27;;;;;;;5.72;5.22;;;;;;;26.21;52.55;99330.81;1673674;85;21716;-77
2022/06/12 07:32:53;;;;;;;7.05;5.25;;;;;;;26.26;51.89;99328.48;1673758;85;21575;-77
2022/06/12 07:35:20;;;;;;;7.25;5.40;;;;;;;26.27;52.23;99332.02;1673748;85;21146;-77
2022/06/12 07:37:47;;;;;;;5.80;4.90;;;;;;;26.35;52.82;99333.93;1673507;85;21565;-77
2022/06/12 07:40:25;;;;;;;5.28;4.78;;;;;;;26.45;52.29;99336.01;1673831;85;21035;-76
2022/06/12 07:42:53;;;;;;;9.75;5.60;;;;;;;26.53;52.06;99337.41;1673548;85;21915;-77
2022/06/12 07:45:20;;;;;;;10.13;4.97;;;;;;;26.62;52.19;99328.33;1673710;85;21108;-77
2022/06/12 07:47:46;;;;;;;7.90;5.15;;;;;;;26.73;52.38;99329.09;1673909;85;21171;-77
2022/06/12 07:50:13;;;;;;;6.22;4.90;;;;;;;26.83;52.06;99328.45;1673775;85;21759;-78
2022/06/12 07:52:41;;;;;;;8.88;5.30;;;;;;;26.93;52.60;99327.81;1673723;85;21135;-77
2022/06/12 07:55:09;;;;;;;9.20;5.45;;;;;;;27.02;51.37;99322.80;1673638;85;21119;-77
2022/06/12 07:57:38;;;;;;;11.25;5.97;;;;;;;27.10;51.17;99322.47;1673693;85;21511;-77
2022/06/12 08:00:07;;;;;;;5.75;5.25;;;;;;;27.11;50.43;99322.31;1673853;85;21084;-77
2022/06/12 08:02:36;;;;;;;5.12;4.62;;;;;;;27.13;50.67;99319.45;1673667;85;21676;-77
2022/06/12 08:05:04;;;;;;;5.33;4.83;;;;;;;27.21;50.43;99322.17;1673469;85;21123;-77
2022/06/12 08:07:30;;;;;;;5.45;4.95;;;;;;;27.27;50.62;99325.58;1673745;85;21159;-78
2022/06/12 08:09:58;;;;;;;8.68;5.42;;;;;;;27.30;50.19;99327.95;1673621;85;21063;-77
2022/06/12 08:12:26;;;;;;;7.53;5.50;;;;;;;27.36;49.97;99325.11;1674034;85;21099;-78
2022/06/12 08:14:54;;;;;;;10.03;4.65;;;;;;;27.46;50.09;99331.72;1673526;84;21107;-76
2022/06/12 08:17:21;;;;;;;4.62;4.17;;;;;;;27.45;49.26;99330.02;1673707;85;21072;-77
2022/06/12 08:22:33;;;;;;;5.95;4.58;;;;;;;27.58;49.54;99330.37;1673701;85;21515;-77
2022/06/12 08:25:00;;;;;;;7.00;4.83;;;;;;;27.69;49.86;99331.41;1669946;85;22009;-78
2022/06/12 08:27:26;;;;;;;5.53;4.70;;;;;;;27.80;49.81;99332.40;1674051;85;21115;-77
2022/06/12 08:29:53;;;;;;;7.12;4.80;;;;;;;27.94;49.83;99332.77;1673650;85;21091;-77
2022/06/12 08:32:21;;;;;;;6.83;4.60;;;;;;;28.07;48.89;99331.75;1673573;85;21037;-77
2022/06/12 08:34:54;;;;;;;5.22;4.80;;;;;;;28.19;48.43;99332.75;1673664;84;21039;-76
2022/06/12 08:37:25;;;;;;;5.87;4.28;;;;;;;28.28;48.32;99335.28;1673341;85;21071;-77
2022/06/12 08:39:52;;;;;;;5.53;4.25;;;;;;;28.35;47.91;99332.22;1674123;85;21818;-77
2022/06/12 08:42:27;;;;;;;5.17;4.78;;;;;;;28.41;47.42;99333.41;1673741;85;21633;-77
2022/06/12 08:45:16;;;;;;;5.75;4.83;;;;;;;28.42;46.36;99335.08;1673922;85;22057;-77
2022/06/12 08:47:54;;;;;;;4.95;4.55;;;;;;;28.40;46.06;99333.06;1673858;85;21125;-77
2022/06/12 08:50:38;;;;;;;7.08;4.90;;;;;;;28.35;46.97;99330.03;1673713;85;21094;-77
2022/06/12 08:53:30;;;;;;;5.30;4.67;;;;;;;28.39;46.59;99335.41;1673864;85;21140;-77
2022/06/12 08:56:08;;;;;;;8.53;5.40;;;;;;;28.41;46.31;99332.05;1673302;85;21123;-77
2022/06/12 08:59:17;;;;;;;9.63;4.22;;;;;;;28.47;46.91;99334.05;1673433;85;21172;-77
2022/06/12 09:01:45;;;;;;;8.70;4.67;;;;;;;28.59;46.64;99334.55;1673687;85;21163;-77
2022/06/12 09:04:15;;;;;;;5.72;4.55;;;;;;;28.66;46.26;99325.22;1673758;85;21443;-77
2022/06/12 09:07:04;;;;;;;4.78;4.35;;;;;;;28.72;46.55;99321.83;1673870;85;21084;-78
2022/06/12 09:09:48;;;;;;;4.55;3.92;;;;;;;28.82;46.48;99317.05;1673875;85;21069;-77
2022/06/12 09:12:36;;;;;;;6.90;3.70;;;;;;;28.91;46.09;99318.67;1673525;85;33624;-77
2022/06/12 09:15:41;;;;;;;7.20;3.50;;;;;;;29.05;45.44;99318.95;1673800;85;21540;-77
2022/06/12 09:18:23;;;;;;;7.10;3.40;;;;;;;29.17;44.85;99314.87;1673735;85;21099;-77
2022/06/12 09:21:13;;;;;;;3.42;3.22;;;;;;;29.23;43.65;99308.72;1673915;85;21155;-77
2022/06/12 09:24:07;;;;;;;6.03;3.37;;;;;;;29.21;43.35;99305.35;1673687;85;21098;-77
2022/06/12 09:26:57;;;;;;;6.33;3.12;;;;;;;29.26;44.09;99310.24;1673881;85;21020;-77
2022/06/12 09:29:55;;;;;;;6.58;3.33;;;;;;;29.36;43.92;99318.14;1673938;85;21504;-77
2022/06/12 09:32:35;;;;;;;8.18;3.17;;;;;;;29.45;43.49;99311.62;1674019;85;21150;-77
2022/06/12 09:35:34;;;;;;;8.03;3.40;;;;;;;29.45;42.85;99319.77;1673138;85;21127;-77
2022/06/12 09:38:23;;;;;;;8.73;3.80;;;;;;;29.43;41.96;99317.75;1673882;85;21023;-77
2022/06/12 09:41:18;;;;;;;4.47;3.42;;;;;;;29.43;42.68;99317.23;1672499;85;21139;-77
2022/06/12 09:43:54;;;;;;;6.85;3.47;;;;;;;29.53;42.61;99314.80;1673573;85;21085;-78
2022/06/12 09:46:53;;;;;;;4.92;2.85;;;;;;;29.55;42.01;99312.23;1673698;85;21119;-77
2022/06/12 09:49:34;;;;;;;5.75;3.05;;;;;;;29.55;41.26;99306.81;1673625;85;21579;-77
2022/06/12 09:52:34;;;;;;;4.65;2.70;;;;;;;29.46;40.90;99304.67;1673559;85;21098;-77
2022/06/12 09:55:19;;;;;;;5.08;3.20;;;;;;;29.41;40.50;99311.15;1673658;85;21071;-77
2022/06/12 09:58:01;;;;;;;4.92;2.70;;;;;;;29.41;41.43;99310.32;1663728;85;21563;-77
2022/06/12 10:00:56;;;;;;;3.47;2.70;;;;;;;29.52;41.28;99314.47;1674486;85;21736;-77
2022/06/12 10:03:43;;;;;;;3.02;2.55;;;;;;;29.63;40.91;99301.33;1678736;85;21171;-77
2022/06/12 10:06:42;;;;;;;3.35;2.60;;;;;;;29.75;38.73;99300.38;1678584;85;21498;-77
2022/06/12 10:09:29;;;;;;;6.55;2.37;;;;;;;29.55;38.08;99301.39;1678451;85;21080;-77
2022/06/12 10:12:16;;;;;;;6.70;2.80;;;;;;;29.40;40.07;99304.06;1678796;85;21083;-78
2022/06/12 10:14:46;;;;;;;7.12;2.58;;;;;;;29.50;39.83;99302.44;1674724;85;20944;-77
2022/06/12 10:17:19;;;;;;;6.50;1.98;;;;;;;29.48;38.75;99299.08;1678735;85;21118;-77
2022/06/12 10:20:04;;;;;;;9.83;2.65;;;;;;;29.49;38.77;99299.42;1678593;84;22053;-77
2022/06/12 10:22:35;;;;;;;7.83;2.35;;;;;;;29.56;38.25;99304.44;1659556;85;21089;-77
2022/06/12 10:25:02;;;;;;;6.03;2.10;;;;;;;29.68;37.80;99302.67;1651180;86;21101;-77
2022/06/12 10:27:46;;;;;;;2.65;2.47;;;;;;;29.70;37.69;99290.59;1651198;86;21101;-77
2022/06/12 10:30:38;;;;;;;6.83;2.30;;;;;;;29.78;37.82;99297.86;1651339;86;21364;-77
2022/06/12 10:33:17;;;;;;;4.97;2.02;;;;;;;29.88;37.53;99297.09;1651128;86;21101;-78
2022/06/12 10:35:50;;;;;;;1.85;1.72;;;;;;;30.04;37.34;99295.25;1661897;85;21533;-77
2022/06/12 10:38:19;;;;;;;3.95;2.17;;;;;;;30.18;35.77;99289.02;1678867;85;21034;-77
2022/06/12 10:40:56;;;;;;;2.95;1.90;;;;;;;30.24;35.99;99292.31;1678518;85;21043;-78
2022/06/12 10:43:35;;;;;;;2.42;2.22;;;;;;;30.37;36.68;99290.36;1678511;85;21228;-77
2022/06/12 10:46:24;;;;;;;5.08;1.95;;;;;;;30.53;35.96;99290.17;1678391;85;21145;-77
2022/06/12 10:49:18;;;;;;;3.95;2.20;;;;;;;30.69;36.08;99286.39;1678593;85;21148;-77
2022/06/12 10:51:45;;;;;;;5.23;3.07;;;;;;;30.84;36.16;99273.33;1678707;85;21551;-78
2022/06/12 10:54:27;;;;;;;4.97;2.30;;;;;;;30.93;35.45;99280.31;1678732;85;21089;-77
2022/06/12 10:57:25;;;;;;;3.77;2.60;;;;;;;30.97;35.67;99283.02;1678793;85;21144;-78
2022/06/12 11:00:05;;;;;;;9.08;2.67;;;;;;;30.98;35.75;99281.97;1678635;85;21137;-78
2022/06/12 11:02:53;;;;;;;4.65;2.95;;;;;;;31.00;35.95;99278.57;1671477;85;21114;-77
2022/06/12 11:05:37;;;;;;;8.93;2.45;;;;;;;31.01;35.60;99276.69;1671302;85;21035;-77
2022/06/12 11:08:16;;;;;;;2.50;2.25;;;;;;;30.99;35.33;99279.59;1671762;85;21133;-77
2022/06/12 11:10:59;;;;;;;2.60;2.40;;;;;;;31.01;35.61;99276.16;1671530;85;21218;-77
2022/06/12 11:14:03;;;;;;;2.72;2.30;;;;;;;30.87;35.12;99273.78;1671531;85;21600;-77
2022/06/12 11:17:08;;;;;;;6.95;2.15;;;;;;;30.75;35.34;99273.43;1671590;85;21692;-77
2022/06/12 11:19:44;;;;;;;5.30;2.23;;;;;;;30.75;35.62;99273.43;1671351;85;21067;-77
2022/06/12 11:22:34;;;;;;;6.42;2.17;;;;;;;30.75;34.93;99277.50;1671672;85;21089;-77
2022/06/12 11:25:16;;;;;;;5.58;2.40;;;;;;;30.69;34.79;99263.31;1671706;85;21114;-77
2022/06/12 11:28:25;;;;;;;2.72;2.50;;;;;;;30.72;35.24;99264.30;1671359;85;21074;-77
2022/06/12 11:31:24;;;;;;;2.70;2.02;;;;;;;30.84;35.16;99261.94;1624936;88;21106;-77
2022/06/12 11:34:26;;;;;;;5.75;2.77;;;;;;;30.95;35.49;99249.78;1671493;85;21066;-76
2022/06/12 11:37:27;;;;;;;6.55;2.80;;;;;;;31.09;35.45;99257.55;1671079;85;21581;-77
2022/06/12 11:40:33;;;;;;;4.33;2.60;;;;;;;31.15;35.10;99252.69;1671475;85;21759;-76
2022/06/12 11:43:15;;;;;;;2.40;2.17;;;;;;;31.03;35.63;99248.27;1671434;85;21041;-77
2022/06/12 11:46:10;;;;;;;1.98;1.80;;;;;;;30.98;35.73;99245.81;1671561;85;21543;-77
2022/06/12 11:48:56;;;;;;;;;;;;;;;30.92;35.11;99244.69;1673983;85;21037;-76
2022/06/12 11:51:34;;;;;;;2.42;2.22;;;;;;;30.74;34.90;99247.29;1671866;85;20208;-77
2022/06/12 11:54:27;;;;;;;3.00;2.67;;;;;;;30.68;35.88;99247.21;1646157;85;21161;-77
2022/06/12 11:57:29;;;;;;;3.90;2.58;;;;;;;30.72;35.08;99243.93;1671607;85;21073;-78
2022/06/12 12:00:35;;;;;;;2.62;1.98;;;;;;;30.77;35.42;99235.74;1664303;85;21097;-77
2022/06/12 12:03:32;;;;;;;4.28;2.67;;;;;;;30.86;36.02;99235.94;1671415;85;21085;-77
2022/06/12 12:06:28;;;;;;;4.97;2.30;;;;;;;31.06;36.38;99231.59;1671511;85;21609;-77
2022/06/12 12:09:00;;;;;;;3.42;2.30;;;;;;;31.19;36.21;99234.14;1671839;85;21120;-77
2022/06/12 12:11:34;;;;;;;8.03;2.67;;;;;;;31.37;36.11;99223.66;1671540;85;21018;-77
2022/06/12 12:14:04;;;;;;;3.08;2.40;;;;;;;31.41;35.37;99220.86;1672130;85;21034;-77
2022/06/12 12:16:46;;;;;;;3.62;2.20;;;;;;;31.37;35.62;99225.02;1671576;85;21095;-76
2022/06/12 12:19:47;;;;;;;5.20;2.15;;;;;;;31.36;35.51;99216.52;1664539;85;21603;-77
2022/06/12 12:22:42;;;;;;;3.12;2.30;;;;;;;31.32;35.35;99224.76;1640443;87;21167;-76
2022/06/12 12:25:44;;;;;;;2.33;2.02;;;;;;;31.19;35.06;99217.84;1593585;90;21112;-77
2022/06/12 12:28:28;;;;;;;2.85;2.27;;;;;;;31.05;35.41;99213.63;1624639;87;21115;-77